createdAt,value
2022-09-14T00:01:23.603Z,16.93
2022-09-14T00:03:46.314Z,16.90
2022-09-14T00:06:15.649Z,16.91
2022-09-14T00:08:44.250Z,16.94
2022-09-14T00:11:15.161Z,16.93
2022-09-14T00:13:43.460Z,16.91
2022-09-14T00:16:22.863Z,16.90
2022-09-14T00:18:54.570Z,16.89
2022-09-14T00:21:21.727Z,16.84
2022-09-14T00:23:48.394Z,16.74
2022-09-14T00:26:17.197Z,16.79
2022-09-14T00:28:49.352Z,16.78
2022-09-14T00:31:16.754Z,16.79
2022-09-14T00:33:44.411Z,16.79
2022-09-14T00:36:13.522Z,16.78
2022-09-14T00:38:40.541Z,16.74
2022-09-14T00:41:12.411Z,16.74
2022-09-14T00:43:52.731Z,16.71
2022-09-14T00:46:19.256Z,16.73
2022-09-14T00:48:46.160Z,16.74
2022-09-14T00:51:13.043Z,16.74
2022-09-14T00:53:40.083Z,16.70
2022-09-14T00:56:07.041Z,16.67
2022-09-14T00:58:33.593Z,16.55
2022-09-14T01:01:01.623Z,16.48
2022-09-14T01:03:28.786Z,16.49
2022-09-14T01:06:05.053Z,16.50
2022-09-14T01:08:47.132Z,16.48
2022-09-14T01:11:55.205Z,16.51
2022-09-14T01:14:21.679Z,16.47
2022-09-14T01:17:11.095Z,16.47
2022-09-14T01:20:02.071Z,16.47
2022-09-14T01:22:52.285Z,16.49
2022-09-14T01:25:39.188Z,16.51
2022-09-14T01:28:10.972Z,16.46
2022-09-14T01:30:39.680Z,16.39
2022-09-14T01:33:08.145Z,16.37
2022-09-14T01:35:46.833Z,16.36
2022-09-14T01:38:20.044Z,16.28
2022-09-14T01:40:49.356Z,16.28
2022-09-14T01:43:38.430Z,16.27
2022-09-14T01:46:14.985Z,16.23
2022-09-14T01:48:51.065Z,16.20
2022-09-14T01:51:26.111Z,16.19
2022-09-14T01:54:27.923Z,16.17
2022-09-14T01:57:18.268Z,16.13
2022-09-14T01:59:46.669Z,16.13
2022-09-14T02:02:18.515Z,16.08
2022-09-14T02:05:01.593Z,15.94
2022-09-14T02:07:28.151Z,15.91
2022-09-14T02:09:55.341Z,15.87
2022-09-14T02:12:22.855Z,15.82
2022-09-14T02:14:49.987Z,15.81
2022-09-14T02:17:16.553Z,15.74
2022-09-14T02:19:55.799Z,15.73
2022-09-14T02:22:22.690Z,15.67
2022-09-14T02:24:49.580Z,15.65
2022-09-14T02:27:16.098Z,15.57
2022-09-14T02:29:42.684Z,15.53
2022-09-14T02:32:30.829Z,15.48
2022-09-14T02:35:20.628Z,15.43
2022-09-14T02:38:01.562Z,15.39
2022-09-14T02:40:38.199Z,15.36
2022-09-14T02:43:10.861Z,15.40
2022-09-14T02:45:37.327Z,15.43
2022-09-14T02:48:12.586Z,15.39
2022-09-14T02:50:45.180Z,15.36
2022-09-14T02:54:04.807Z,15.35
2022-09-14T02:56:31.835Z,15.35
2022-09-14T02:58:58.397Z,15.39
2022-09-14T03:01:25.251Z,15.42
2022-09-14T03:03:51.784Z,15.40
2022-09-14T03:06:18.431Z,15.41
2022-09-14T03:08:45.063Z,15.39
2022-09-14T03:11:11.788Z,15.41
2022-09-14T03:13:38.530Z,15.40
2022-09-14T03:16:13.112Z,15.41
2022-09-14T03:18:39.993Z,15.38
2022-09-14T03:21:09.869Z,15.36
2022-09-14T03:23:41.520Z,15.29
2022-09-14T03:26:13.106Z,15.32
2022-09-14T03:28:39.975Z,15.30
2022-09-14T03:31:07.818Z,15.26
2022-09-14T03:33:34.679Z,15.27
2022-09-14T03:36:08.920Z,15.25
2022-09-14T03:38:35.433Z,15.30
2022-09-14T03:41:01.972Z,15.31
2022-09-14T03:43:28.491Z,15.26
2022-09-14T03:45:55.048Z,15.29
2022-09-14T03:48:21.568Z,15.26
2022-09-14T03:50:48.198Z,15.32
2022-09-14T03:53:14.696Z,15.30
2022-09-14T03:55:41.784Z,15.30
2022-09-14T03:58:08.296Z,15.28
2022-09-14T04:00:34.859Z,15.22
2022-09-14T04:03:01.486Z,15.20
2022-09-14T04:05:28.097Z,15.19
2022-09-14T04:07:54.621Z,15.18
2022-09-14T04:10:21.141Z,15.14
2022-09-14T04:12:47.695Z,15.13
2022-09-14T04:15:14.235Z,15.13
2022-09-14T04:17:40.745Z,15.12
2022-09-14T04:20:08.033Z,15.11
2022-09-14T04:22:34.554Z,15.06
2022-09-14T04:25:01.120Z,15.08
2022-09-14T04:27:27.919Z,15.06
2022-09-14T04:29:54.475Z,15.01
2022-09-14T04:32:20.971Z,14.98
2022-09-14T04:34:48.995Z,14.96
2022-09-14T04:37:15.657Z,14.93
2022-09-14T04:39:42.498Z,14.93
2022-09-14T04:42:09.116Z,14.82
2022-09-14T04:44:35.672Z,14.79
2022-09-14T04:47:02.239Z,14.82
2022-09-14T04:49:28.778Z,14.88
2022-09-14T04:51:55.349Z,14.92
2022-09-14T04:54:22.131Z,14.85
2022-09-14T04:56:48.693Z,14.90
2022-09-14T04:59:15.529Z,14.90
2022-09-14T05:01:47.676Z,14.92
2022-09-14T05:04:14.378Z,14.92
2022-09-14T05:06:42.257Z,14.92
2022-09-14T05:09:14.772Z,14.91
2022-09-14T05:11:41.891Z,14.92
2022-09-14T05:14:10.820Z,14.91
2022-09-14T05:16:38.399Z,14.93
2022-09-14T05:19:07.107Z,14.94
2022-09-14T05:21:36.041Z,14.94
2022-09-14T05:24:05.614Z,14.93
2022-09-14T05:26:32.801Z,14.88
2022-09-14T05:29:01.388Z,14.92
2022-09-14T05:31:29.142Z,14.93
2022-09-14T05:33:56.071Z,14.96
2022-09-14T05:36:22.883Z,14.93
2022-09-14T05:38:49.615Z,14.81
2022-09-14T05:41:16.944Z,14.68
2022-09-14T05:43:43.937Z,14.64
2022-09-14T05:46:12.653Z,14.55
2022-09-14T05:48:40.206Z,14.51
2022-09-14T05:51:12.071Z,14.49
2022-09-14T05:53:38.596Z,14.45
2022-09-14T05:56:07.600Z,14.48
2022-09-14T05:58:35.294Z,14.51
2022-09-14T06:01:29.597Z,14.49
2022-09-14T06:03:57.661Z,14.32
2022-09-14T06:06:24.607Z,14.34
2022-09-14T06:08:53.750Z,14.38
2022-09-14T06:11:23.627Z,14.39
2022-09-14T06:13:50.582Z,14.35
2022-09-14T06:16:19.282Z,14.38
2022-09-14T06:18:46.706Z,14.32
2022-09-14T06:21:19.026Z,14.29
2022-09-14T06:23:46.428Z,14.29
2022-09-14T06:26:13.459Z,14.29
2022-09-14T06:28:40.137Z,14.31
2022-09-14T06:31:07.840Z,14.32
2022-09-14T06:33:35.067Z,14.37
2022-09-14T06:36:12.897Z,14.45
2022-09-14T06:38:40.566Z,14.44
2022-09-14T06:41:09.244Z,14.35
2022-09-14T06:43:37.536Z,14.41
2022-09-14T06:46:06.493Z,14.38
2022-09-14T06:48:43.130Z,14.34
2022-09-14T06:51:20.205Z,14.32
2022-09-14T06:53:48.108Z,14.35
2022-09-14T06:56:15.788Z,14.37
2022-09-14T06:58:42.812Z,14.38
2022-09-14T07:01:15.093Z,14.40
2022-09-14T07:03:43.870Z,14.44
2022-09-14T07:06:14.507Z,14.44
2022-09-14T07:08:41.602Z,14.42
2022-09-14T07:11:10.229Z,14.45
2022-09-14T07:13:37.093Z,14.44
2022-09-14T07:16:04.392Z,14.43
2022-09-14T07:18:34.201Z,14.49
2022-09-14T07:21:05.999Z,14.53
2022-09-14T07:23:33.775Z,14.42
2022-09-14T07:26:15.486Z,14.44
2022-09-14T07:28:43.342Z,14.46
2022-09-14T07:31:21.417Z,14.46
2022-09-14T07:33:48.810Z,14.45
2022-09-14T07:36:15.666Z,14.43
2022-09-14T07:38:52.079Z,14.41
2022-09-14T07:41:21.332Z,14.46
2022-09-14T07:43:52.181Z,14.43
2022-09-14T07:46:19.793Z,14.43
2022-09-14T07:48:46.719Z,14.46
2022-09-14T07:51:13.393Z,14.38
2022-09-14T07:53:45.680Z,14.42
2022-09-14T07:56:13.589Z,14.49
2022-09-14T07:58:40.247Z,14.50
2022-09-14T08:01:12.711Z,14.54
2022-09-14T08:03:41.168Z,14.61
2022-09-14T08:06:14.046Z,14.69
2022-09-14T08:08:43.328Z,14.68
2022-09-14T08:11:15.513Z,14.71
2022-09-14T08:13:44.553Z,14.67
2022-09-14T08:16:12.514Z,14.65
2022-09-14T08:18:39.729Z,14.68
2022-09-14T08:21:08.794Z,14.67
2022-09-14T08:23:35.757Z,14.64
2022-09-14T08:26:04.229Z,14.67
2022-09-14T08:28:30.955Z,14.71
2022-09-14T08:31:11.958Z,14.75
2022-09-14T08:33:41.138Z,14.69
2022-09-14T08:36:09.116Z,14.72
2022-09-14T08:38:36.190Z,14.63
2022-09-14T08:41:12.698Z,14.58
2022-09-14T08:43:39.578Z,14.45
2022-09-14T08:46:10.170Z,14.52
2022-09-14T08:48:48.107Z,14.54
2022-09-14T08:51:15.699Z,14.51
2022-09-14T08:53:42.725Z,14.54
2022-09-14T08:56:19.444Z,14.58
2022-09-14T08:58:53.023Z,14.67
2022-09-14T09:01:47.247Z,14.58
2022-09-14T09:04:20.064Z,14.51
2022-09-14T09:07:04.123Z,14.59
2022-09-14T09:09:43.626Z,14.49
2022-09-14T09:12:22.397Z,14.25
2022-09-14T09:14:58.288Z,14.30
2022-09-14T09:17:41.049Z,14.33
2022-09-14T09:20:39.477Z,14.45
2022-09-14T09:23:11.907Z,14.50
2022-09-14T09:25:58.564Z,14.41
2022-09-14T09:28:26.836Z,14.42
2022-09-14T09:30:54.622Z,14.36
2022-09-14T09:33:23.937Z,14.43
2022-09-14T09:35:51.399Z,14.48
2022-09-14T09:38:24.948Z,14.50
2022-09-14T09:41:00.548Z,14.48
2022-09-14T09:43:45.807Z,14.50
2022-09-14T09:46:14.629Z,14.47
2022-09-14T09:48:43.684Z,14.50
2022-09-14T09:51:33.580Z,14.49
2022-09-14T09:54:12.271Z,14.35
2022-09-14T09:56:52.416Z,14.31
2022-09-14T09:59:31.019Z,14.33
2022-09-14T10:02:17.543Z,14.33
2022-09-14T10:05:10.892Z,14.36
2022-09-14T10:07:42.786Z,14.39
2022-09-14T10:10:12.432Z,14.48
2022-09-14T10:12:45.224Z,14.51
2022-09-14T10:15:27.044Z,14.44
2022-09-14T10:18:11.889Z,14.44
2022-09-14T10:20:39.621Z,14.47
2022-09-14T10:23:36.923Z,14.53
2022-09-14T10:26:18.848Z,14.57
2022-09-14T10:28:49.947Z,14.65
2022-09-14T10:31:19.354Z,14.69
2022-09-14T10:33:47.048Z,14.74
2022-09-14T10:36:19.947Z,14.78
2022-09-14T10:39:08.945Z,14.84
2022-09-14T10:41:45.564Z,14.95
2022-09-14T10:44:33.966Z,14.91
2022-09-14T10:47:18.860Z,14.90
2022-09-14T10:50:04.282Z,14.97
2022-09-14T10:52:43.680Z,15.03
2022-09-14T10:55:34.119Z,15.09
2022-09-14T10:58:18.112Z,15.28
2022-09-14T11:00:58.852Z,15.43
2022-09-14T11:03:54.832Z,15.17
2022-09-14T11:06:40.180Z,15.11
2022-09-14T11:09:15.157Z,15.12
2022-09-14T11:11:48.857Z,15.17
2022-09-14T11:14:39.874Z,15.17
2022-09-14T11:17:21.611Z,15.09
2022-09-14T11:20:15.586Z,15.03
2022-09-14T11:22:48.068Z,14.94
2022-09-14T11:25:22.236Z,14.90
2022-09-14T11:27:52.768Z,14.98
2022-09-14T11:30:21.732Z,15.05
2022-09-14T11:32:57.249Z,15.03
2022-09-14T11:35:45.193Z,14.85
2022-09-14T11:38:17.143Z,14.75
2022-09-14T11:40:55.953Z,14.79
2022-09-14T11:43:41.289Z,14.87
2022-09-14T11:46:11.653Z,14.91
2022-09-14T11:48:44.534Z,14.89
2022-09-14T11:51:22.509Z,14.92
2022-09-14T11:53:49.877Z,14.98
2022-09-14T11:56:28.017Z,15.07
2022-09-14T11:58:56.352Z,15.10
2022-09-14T12:01:41.177Z,15.23
2022-09-14T12:04:17.790Z,15.23
2022-09-14T12:06:50.382Z,15.26
2022-09-14T12:09:24.532Z,15.31
2022-09-14T12:12:00.867Z,15.45
2022-09-14T12:14:35.818Z,15.22
2022-09-14T12:17:41.361Z,15.07
2022-09-14T12:20:41.926Z,14.78
2022-09-14T12:23:29.127Z,14.77
2022-09-14T12:26:01.616Z,14.94
2022-09-14T12:28:39.012Z,15.00
2022-09-14T12:31:05.563Z,15.22
2022-09-14T12:33:35.010Z,15.37
2022-09-14T12:36:01.502Z,15.55
2022-09-14T12:38:31.070Z,15.90
2022-09-14T12:41:15.513Z,16.10
2022-09-14T12:43:42.027Z,16.26
2022-09-14T12:46:20.918Z,16.42
2022-09-14T12:48:47.718Z,16.35
2022-09-14T12:51:32.704Z,16.43
2022-09-14T12:54:01.970Z,16.42
2022-09-14T12:56:41.481Z,16.62
2022-09-14T12:59:08.731Z,16.85
2022-09-14T13:01:51.511Z,17.18
2022-09-14T13:04:29.845Z,17.41
2022-09-14T13:06:57.460Z,17.52
2022-09-14T13:09:26.325Z,17.38
2022-09-14T13:11:55.103Z,17.50
2022-09-14T13:14:24.284Z,17.58
2022-09-14T13:16:52.179Z,17.92
2022-09-14T13:19:25.055Z,18.25
2022-09-14T13:21:54.873Z,18.27
2022-09-14T13:24:43.563Z,18.15
2022-09-14T13:27:30.716Z,17.96
2022-09-14T13:30:03.279Z,17.50
2022-09-14T13:32:30.615Z,17.38
2022-09-14T13:34:57.918Z,17.29
2022-09-14T13:37:25.035Z,17.17
2022-09-14T13:39:54.366Z,17.01
2022-09-14T13:42:21.563Z,16.88
2022-09-14T13:44:49.834Z,16.76
2022-09-14T13:47:21.806Z,16.51
2022-09-14T13:49:50.457Z,16.27
2022-09-14T13:52:43.448Z,16.13
2022-09-14T13:55:22.720Z,16.03
2022-09-14T13:58:13.131Z,15.93
2022-09-14T14:01:06.146Z,15.87
2022-09-14T14:03:47.644Z,15.80
2022-09-14T14:06:17.132Z,15.74
2022-09-14T14:08:43.830Z,15.66
2022-09-14T14:11:10.460Z,15.56
2022-09-14T14:13:38.296Z,15.48
2022-09-14T14:16:17.143Z,15.39
2022-09-14T14:18:49.141Z,15.48
2022-09-14T14:21:34.061Z,15.52
2022-09-14T14:24:26.949Z,15.53
2022-09-14T14:26:58.018Z,15.45
2022-09-14T14:29:25.722Z,15.40
2022-09-14T14:31:55.274Z,15.34
2022-09-14T14:34:24.320Z,15.14
2022-09-14T14:36:51.020Z,14.94
2022-09-14T14:39:19.508Z,14.97
2022-09-14T14:41:47.028Z,15.03
2022-09-14T14:44:18.595Z,15.05
2022-09-14T14:46:45.623Z,14.95
2022-09-14T14:49:16.164Z,14.89
2022-09-14T14:51:43.248Z,14.98
2022-09-14T14:54:10.508Z,15.02
2022-09-14T14:56:40.083Z,15.05
2022-09-14T14:59:22.092Z,15.00
2022-09-14T15:01:52.031Z,15.03
2022-09-14T15:04:18.830Z,15.09
2022-09-14T15:06:46.493Z,15.08
2022-09-14T15:09:18.237Z,15.06
2022-09-14T15:11:45.081Z,15.05
2022-09-14T15:14:14.081Z,15.00
2022-09-14T15:16:40.902Z,14.84
2022-09-14T15:19:07.835Z,14.68
2022-09-14T15:21:34.390Z,14.53
2022-09-14T15:24:01.400Z,14.46
2022-09-14T15:26:28.347Z,14.49
2022-09-14T15:28:54.905Z,14.43
2022-09-14T15:31:21.611Z,14.43
2022-09-14T15:33:48.219Z,14.46
2022-09-14T15:36:35.346Z,14.50
2022-09-14T15:39:01.999Z,14.64
2022-09-14T15:41:28.528Z,14.69
2022-09-14T15:43:55.101Z,14.69
2022-09-14T15:46:21.610Z,14.63
2022-09-14T15:48:48.149Z,14.62
2022-09-14T15:51:14.724Z,14.60
2022-09-14T15:53:42.100Z,14.58
2022-09-14T15:56:15.972Z,14.50
2022-09-14T15:58:47.225Z,14.41
2022-09-14T16:01:16.654Z,14.40
2022-09-14T16:03:43.558Z,14.35
2022-09-14T16:06:11.703Z,14.38
2022-09-14T16:08:39.085Z,14.44
2022-09-14T16:11:07.254Z,14.38
2022-09-14T16:13:34.613Z,14.34
2022-09-14T16:16:13.561Z,14.35
2022-09-14T16:18:40.626Z,14.32
2022-09-14T16:21:18.907Z,14.30
2022-09-14T16:23:48.059Z,14.23
2022-09-14T16:26:21.887Z,14.23
2022-09-14T16:28:49.667Z,14.21
2022-09-14T16:31:21.665Z,14.15
2022-09-14T16:33:55.554Z,14.20
2022-09-14T16:36:26.120Z,14.12
2022-09-14T16:38:55.381Z,14.18
2022-09-14T16:41:21.911Z,14.20
2022-09-14T16:44:02.835Z,14.18
2022-09-14T16:46:30.552Z,14.15
2022-09-14T16:48:58.690Z,14.16
2022-09-14T16:51:28.129Z,14.11
2022-09-14T16:53:54.732Z,14.19
2022-09-14T16:56:35.180Z,14.23
2022-09-14T16:59:02.602Z,14.19
2022-09-14T17:01:37.182Z,14.24
2022-09-14T17:04:09.593Z,14.28
2022-09-14T17:06:38.365Z,14.31
2022-09-14T17:09:14.849Z,14.28
2022-09-14T17:11:42.055Z,14.28
2022-09-14T17:14:12.875Z,14.27
2022-09-14T17:16:39.479Z,14.28
2022-09-14T17:19:06.293Z,14.30
2022-09-14T17:21:35.617Z,14.24
2022-09-14T17:24:02.804Z,14.25
2022-09-14T17:26:29.374Z,14.26
2022-09-14T17:28:57.555Z,14.18
2022-09-14T17:31:26.521Z,14.18
2022-09-14T17:33:55.045Z,14.21
2022-09-14T17:36:21.972Z,14.18
2022-09-14T17:38:49.038Z,14.21
2022-09-14T17:41:19.095Z,14.20
2022-09-14T17:43:50.860Z,14.17
2022-09-14T17:46:17.808Z,14.10
2022-09-14T17:48:44.563Z,14.12
2022-09-14T17:51:18.189Z,14.10
2022-09-14T17:53:45.405Z,14.04
2022-09-14T17:56:14.198Z,13.99
2022-09-14T17:58:42.100Z,13.94
2022-09-14T18:01:13.662Z,13.95
2022-09-14T18:03:42.555Z,13.93
2022-09-14T18:06:12.243Z,13.89
2022-09-14T18:08:39.304Z,13.87
2022-09-14T18:11:07.915Z,13.87
2022-09-14T18:13:34.631Z,13.81
2022-09-14T18:16:01.721Z,13.83
2022-09-14T18:18:28.462Z,13.82
2022-09-14T18:20:55.000Z,13.71
2022-09-14T18:23:21.681Z,13.71
2022-09-14T18:25:48.278Z,13.69
2022-09-14T18:28:14.801Z,13.65
2022-09-14T18:30:43.669Z,13.64
2022-09-14T18:33:10.897Z,13.63
2022-09-14T18:35:38.290Z,13.66
2022-09-14T18:38:06.678Z,13.67
2022-09-14T18:40:34.729Z,13.66
2022-09-14T18:43:01.449Z,13.60
2022-09-14T18:45:28.885Z,13.61
2022-09-14T18:47:55.722Z,13.59
2022-09-14T18:50:23.267Z,13.62
2022-09-14T18:52:53.089Z,13.58
2022-09-14T18:55:19.713Z,13.60
2022-09-14T18:57:47.369Z,13.62
2022-09-14T19:00:18.319Z,13.62
2022-09-14T19:02:45.960Z,13.67
2022-09-14T19:05:12.795Z,13.65
2022-09-14T19:07:39.323Z,13.66
2022-09-14T19:10:10.899Z,13.63
2022-09-14T19:12:38.202Z,13.66
2022-09-14T19:15:05.579Z,13.67
2022-09-14T19:17:32.313Z,13.68
2022-09-14T19:19:59.096Z,13.67
2022-09-14T19:22:25.788Z,13.68
2022-09-14T19:24:52.333Z,13.66
2022-09-14T19:27:18.847Z,13.63
2022-09-14T19:29:45.477Z,13.57
2022-09-14T19:32:12.116Z,13.50
2022-09-14T19:34:38.769Z,13.48
2022-09-14T19:37:05.414Z,13.49
2022-09-14T19:39:32.055Z,13.53
2022-09-14T19:41:58.692Z,13.53
2022-09-14T19:44:25.317Z,13.53
2022-09-14T19:46:52.337Z,13.50
2022-09-14T19:49:23.799Z,13.47
2022-09-14T19:51:50.521Z,13.46
2022-09-14T19:54:17.583Z,13.34
2022-09-14T19:56:44.563Z,13.35
2022-09-14T19:59:11.262Z,13.32
2022-09-14T20:01:39.242Z,13.32
2022-09-14T20:04:07.322Z,13.32
2022-09-14T20:06:36.377Z,13.29
2022-09-14T20:09:04.477Z,13.24
2022-09-14T20:11:32.205Z,13.25
2022-09-14T20:14:01.145Z,13.27
2022-09-14T20:16:31.003Z,13.24
2022-09-14T20:18:59.587Z,13.19
2022-09-14T20:21:27.261Z,13.22
2022-09-14T20:24:15.728Z,13.22
2022-09-14T20:26:43.492Z,13.16
2022-09-14T20:29:10.087Z,13.21
2022-09-14T20:31:36.772Z,13.22
2022-09-14T20:34:03.870Z,13.22
2022-09-14T20:36:30.644Z,13.22
2022-09-14T20:38:59.322Z,13.24
2022-09-14T20:41:31.701Z,13.28
2022-09-14T20:43:58.274Z,13.30
2022-09-14T20:46:27.261Z,13.33
2022-09-14T20:48:54.618Z,13.29
2022-09-14T20:51:22.410Z,13.29
2022-09-14T20:53:49.080Z,13.33
2022-09-14T20:56:21.202Z,13.30
2022-09-14T20:58:48.545Z,13.31
2022-09-14T21:01:18.382Z,13.30
2022-09-14T21:03:46.944Z,13.26
2022-09-14T21:06:15.776Z,13.24
2022-09-14T21:08:42.921Z,13.17
2022-09-14T21:11:10.960Z,13.21
2022-09-14T21:13:37.991Z,13.20
2022-09-14T21:16:15.646Z,13.13
2022-09-14T21:18:42.983Z,13.09
2022-09-14T21:21:12.129Z,13.10
2022-09-14T21:23:38.859Z,13.09
2022-09-14T21:26:06.980Z,13.08
2022-09-14T21:28:37.651Z,13.08
2022-09-14T21:31:16.273Z,13.09
2022-09-14T21:33:45.118Z,13.09
2022-09-14T21:36:17.651Z,13.04
2022-09-14T21:38:52.128Z,13.04
2022-09-14T21:41:19.717Z,13.08
2022-09-14T21:43:47.124Z,13.08
2022-09-14T21:46:14.492Z,13.09
2022-09-14T21:48:41.334Z,13.11
2022-09-14T21:51:26.117Z,13.06
2022-09-14T21:53:54.751Z,13.08
2022-09-14T21:56:23.498Z,13.10
2022-09-14T21:58:51.835Z,13.08
2022-09-14T22:01:19.233Z,13.05
2022-09-14T22:03:45.845Z,13.06
2022-09-14T22:06:13.669Z,12.97
2022-09-14T22:08:40.409Z,12.97
2022-09-14T22:11:11.743Z,12.94
2022-09-14T22:13:38.626Z,12.94
2022-09-14T22:16:15.702Z,12.84
2022-09-14T22:18:48.837Z,12.72
2022-09-14T22:21:15.578Z,12.61
2022-09-14T22:23:42.084Z,12.54
2022-09-14T22:26:10.547Z,12.42
2022-09-14T22:28:40.031Z,12.36
2022-09-14T22:31:07.518Z,12.26
2022-09-14T22:33:34.815Z,12.18
2022-09-14T22:36:02.703Z,12.06
2022-09-14T22:38:34.610Z,12.01
2022-09-14T22:41:12.643Z,11.97
2022-09-14T22:43:40.133Z,11.92
2022-09-14T22:46:07.987Z,11.86
2022-09-14T22:48:35.051Z,11.67
2022-09-14T22:51:01.989Z,11.60
2022-09-14T22:53:29.552Z,11.52
2022-09-14T22:55:56.754Z,11.38
2022-09-14T22:58:26.097Z,11.34
2022-09-14T23:00:53.475Z,11.26
2022-09-14T23:03:20.388Z,11.19
2022-09-14T23:05:52.253Z,11.07
2022-09-14T23:08:19.461Z,11.02
2022-09-14T23:10:46.580Z,10.89
2022-09-14T23:13:13.187Z,10.86
2022-09-14T23:15:40.241Z,10.75
2022-09-14T23:18:07.558Z,10.72
2022-09-14T23:20:38.915Z,10.70
2022-09-14T23:23:05.456Z,10.73
2022-09-14T23:25:35.388Z,10.75
2022-09-14T23:28:03.041Z,10.80
2022-09-14T23:30:29.936Z,10.84
2022-09-14T23:32:58.101Z,10.84
2022-09-14T23:35:26.816Z,10.90
2022-09-14T23:37:53.447Z,10.99
2022-09-14T23:40:20.114Z,11.06
2022-09-14T23:42:47.903Z,11.15
2022-09-14T23:45:15.095Z,11.23
2022-09-14T23:47:41.747Z,11.32
2022-09-14T23:50:08.878Z,11.40
2022-09-14T23:52:35.423Z,11.46
2022-09-14T23:55:01.964Z,11.49
2022-09-14T23:57:28.479Z,11.57
2022-09-14T23:59:55.021Z,11.59
